Terminal Aerodrome Forecast
Issued by NWS

Home | Current Version | Previous Version | Text Only | Print | Product List | Glossary On
Versions: 1 2 3 4 5 6 7 8 9 10 11 12 13 14 15
364
FTUS41 KPHI 241120
TAFMIV
TAF
KMIV 241120Z 2412/2512 10006KT P6SM BKN250
     FM241700 12013G23KT P6SM BKN150
     FM242000 11013KT P6SM OVC070
     FM242200 11013G21KT 6SM -RA OVC050 PROB30 2422/2424 5SM -RA BR
      OVC025
     FM250000 10012KT 2SM RA BR OVC015
     FM250300 10011KT 2SM RA BR OVC007=

USA.gov is the U.S. government's official web portal to all federal, state and local government web resources and services.